Accueil
METAR-TAF:

METAR-TAF

Aéroports :

Tahiti, Polynésie française

Aéroport international de Tahiti Fa'a'ā

latitude: 17-33S, longitude: 149-37W, altitude: 2 m

Observation

Le bulletin a été fait il y a 18 minutes, à 13:30 UTC
Vent 3 kt de direction variable
Température 22°C
Humidité 73%
Pression 1014 hPa
Visibilité 10 km ou plus

METAR: NTAA 211330Z AUTO VRB03KT 9999 FEW060/// 22/17 Q1014

Heure: 03:48 (13:48 UTC)

Prévision

Le bulletin a été fait il y a 2 heures et 48 minutes, à 11:00 UTC
Prévision valable du 21 à 12 UTC au 22 à 18 UTC
Vent 5 kt de direction variable
Visibilité 10 km ou plus
Quelques nuages à une hauteur de 2300 ft
Nuages épars à une hauteur de 5500 ft

TAF: NTAA 211100Z 2112/2218 VRB05KT 9999 FEW023 SCT055

Observations et prévisions météorologiques de plus de 4000 aéroports (messages METAR et TAF).

Les stations disponibles sont représentées par des disques jaunes et rouges sur la carte.

Passer la souris dessus pour voir le nom de la station.

Cliquer dessus pour voir les observations et prévisions météorologiques.

Pour changer de carte: cliquez sur les boutons verts avec une croix noire pour zoomer, sur le bouton vert avec un tiret pour effectuer un zoom arrière, ou sur les flèches vertes pour les cartes adjacentes.


METAR-TAF: